Arcadia, Iowa
Current Conditions -  °F | °C
As of 11:15 PM on Wednesday 22 Oct 2014 (Local Time) from KCIN Reporting Station
Light Rain Light Rain  
Wind Chill: 55°   Ceiling: 3200
Heat Index: 55°   Visibility: 4mi
Dew Point: 55°   Wind: 8mph
Humidity: 100%   Direction: 190°S
Pressure: 30.08"   Gusts: NA
Location:  42.09°N, 95.05°W
Report Text: KCIN 230415Z AUTO 19007KT 4SM -RA BKN032 BKN038 OVC075 13/13 A3008 RMK AO2
Loading
Personal Weather Stations






























Interactive Weather Map
Tropical Storm Tracking
New forecast layout! Learn more

10-Day Weather Forecast

Advertisements
Track Severe Weather on mobile